sensor_id;sensor_type;location;lat;lon;timestamp;temperature;humidity
29765;DHT22;16667;-33.884;151.182;2022-08-18T00:02:08;12.70;99.90
29765;DHT22;16667;-33.884;151.182;2022-08-18T00:04:43;12.80;99.90
29765;DHT22;16667;-33.884;151.182;2022-08-18T00:07:16;12.70;99.90
29765;DHT22;16667;-33.884;151.182;2022-08-18T00:09:47;12.80;99.90
29765;DHT22;16667;-33.884;151.182;2022-08-18T00:12:20;12.70;99.90
29765;DHT22;16667;-33.884;151.182;2022-08-18T00:14:52;12.80;99.90
29765;DHT22;16667;-33.884;151.182;2022-08-18T00:17:26;12.90;99.90
29765;DHT22;16667;-33.884;151.182;2022-08-18T00:19:59;12.90;99.90
29765;DHT22;16667;-33.884;151.182;2022-08-18T00:22:30;13.00;99.90
29765;DHT22;16667;-33.884;151.182;2022-08-18T00:25:02;13.10;99.90
29765;DHT22;16667;-33.884;151.182;2022-08-18T00:27:32;13.20;99.90
29765;DHT22;16667;-33.884;151.182;2022-08-18T00:30:08;13.30;99.90
29765;DHT22;16667;-33.884;151.182;2022-08-18T00:32:43;13.40;99.90
29765;DHT22;16667;-33.884;151.182;2022-08-18T00:35:18;13.50;99.90
29765;DHT22;16667;-33.884;151.182;2022-08-18T00:37:57;13.60;99.90
29765;DHT22;16667;-33.884;151.182;2022-08-18T00:40:30;13.60;99.90
29765;DHT22;16667;-33.884;151.182;2022-08-18T00:43:03;13.80;99.90
29765;DHT22;16667;-33.884;151.182;2022-08-18T00:45:36;13.90;99.90
29765;DHT22;16667;-33.884;151.182;2022-08-18T00:48:11;13.90;99.90
29765;DHT22;16667;-33.884;151.182;2022-08-18T00:50:46;13.90;99.90
29765;DHT22;16667;-33.884;151.182;2022-08-18T00:53:25;13.90;99.90
29765;DHT22;16667;-33.884;151.182;2022-08-18T00:55:59;14.00;99.90
29765;DHT22;16667;-33.884;151.182;2022-08-18T00:58:36;14.10;99.90
29765;DHT22;16667;-33.884;151.182;2022-08-18T01:01:12;14.10;99.90
29765;DHT22;16667;-33.884;151.182;2022-08-18T01:03:44;14.20;99.90
29765;DHT22;16667;-33.884;151.182;2022-08-18T01:06:27;14.20;99.90
29765;DHT22;16667;-33.884;151.182;2022-08-18T01:09:01;14.20;99.90
29765;DHT22;16667;-33.884;151.182;2022-08-18T01:11:32;14.30;99.90
29765;DHT22;16667;-33.884;151.182;2022-08-18T01:14:05;14.30;99.90
29765;DHT22;16667;-33.884;151.182;2022-08-18T01:16:45;14.60;99.90
29765;DHT22;16667;-33.884;151.182;2022-08-18T01:19:32;15.00;99.90
29765;DHT22;16667;-33.884;151.182;2022-08-18T01:22:23;15.30;99.90
29765;DHT22;16667;-33.884;151.182;2022-08-18T01:25:00;15.60;99.90
29765;DHT22;16667;-33.884;151.182;2022-08-18T01:27:56;15.70;99.90
29765;DHT22;16667;-33.884;151.182;2022-08-18T01:30:30;15.70;99.90
29765;DHT22;16667;-33.884;151.182;2022-08-18T01:33:05;15.70;99.90
29765;DHT22;16667;-33.884;151.182;2022-08-18T01:35:40;15.70;99.90
29765;DHT22;16667;-33.884;151.182;2022-08-18T01:38:16;15.70;99.90
29765;DHT22;16667;-33.884;151.182;2022-08-18T01:40:50;15.60;99.90
29765;DHT22;16667;-33.884;151.182;2022-08-18T01:43:21;15.60;99.90
29765;DHT22;16667;-33.884;151.182;2022-08-18T01:45:55;15.60;99.90
29765;DHT22;16667;-33.884;151.182;2022-08-18T01:48:27;15.70;99.90
29765;DHT22;16667;-33.884;151.182;2022-08-18T01:51:02;15.80;99.90
29765;DHT22;16667;-33.884;151.182;2022-08-18T01:53:33;15.90;99.90
29765;DHT22;16667;-33.884;151.182;2022-08-18T01:56:09;16.00;99.90
29765;DHT22;16667;-33.884;151.182;2022-08-18T01:58:44;16.10;99.90
29765;DHT22;16667;-33.884;151.182;2022-08-18T02:01:16;16.40;99.90
29765;DHT22;16667;-33.884;151.182;2022-08-18T02:03:49;16.60;99.90
29765;DHT22;16667;-33.884;151.182;2022-08-18T02:06:21;16.70;99.90
29765;DHT22;16667;-33.884;151.182;2022-08-18T02:08:52;16.90;99.90
29765;DHT22;16667;-33.884;151.182;2022-08-18T02:11:24;17.10;99.90
29765;DHT22;16667;-33.884;151.182;2022-08-18T02:13:55;17.40;99.90
29765;DHT22;16667;-33.884;151.182;2022-08-18T02:16:27;17.50;99.90
29765;DHT22;16667;-33.884;151.182;2022-08-18T02:19:01;17.70;99.90
29765;DHT22;16667;-33.884;151.182;2022-08-18T02:21:31;17.80;99.90
29765;DHT22;16667;-33.884;151.182;2022-08-18T02:24:03;17.90;99.90
29765;DHT22;16667;-33.884;151.182;2022-08-18T02:26:38;18.00;99.90
29765;DHT22;16667;-33.884;151.182;2022-08-18T02:29:10;17.80;99.90
29765;DHT22;16667;-33.884;151.182;2022-08-18T02:31:40;17.70;99.90
29765;DHT22;16667;-33.884;151.182;2022-08-18T02:34:11;17.60;99.90
29765;DHT22;16667;-33.884;151.182;2022-08-18T02:36:42;17.60;99.90
29765;DHT22;16667;-33.884;151.182;2022-08-18T02:39:13;17.60;99.90
29765;DHT22;16667;-33.884;151.182;2022-08-18T02:41:46;17.60;99.90
29765;DHT22;16667;-33.884;151.182;2022-08-18T02:44:17;17.60;99.90
29765;DHT22;16667;-33.884;151.182;2022-08-18T02:46:52;17.70;99.90
29765;DHT22;16667;-33.884;151.182;2022-08-18T02:49:26;17.70;99.90
29765;DHT22;16667;-33.884;151.182;2022-08-18T02:51:57;17.80;99.90
29765;DHT22;16667;-33.884;151.182;2022-08-18T02:54:28;17.90;99.90
29765;DHT22;16667;-33.884;151.182;2022-08-18T02:57:06;18.10;99.90
29765;DHT22;16667;-33.884;151.182;2022-08-18T02:59:38;18.10;99.90
29765;DHT22;16667;-33.884;151.182;2022-08-18T03:02:10;18.30;99.90
29765;DHT22;16667;-33.884;151.182;2022-08-18T03:04:41;18.40;99.90
29765;DHT22;16667;-33.884;151.182;2022-08-18T03:07:12;18.60;99.90
29765;DHT22;16667;-33.884;151.182;2022-08-18T03:09:43;18.70;99.90
29765;DHT22;16667;-33.884;151.182;2022-08-18T03:12:16;18.90;99.90
29765;DHT22;16667;-33.884;151.182;2022-08-18T03:14:47;19.00;99.90
29765;DHT22;16667;-33.884;151.182;2022-08-18T03:17:18;19.20;99.90
29765;DHT22;16667;-33.884;151.182;2022-08-18T03:19:49;19.20;99.90
29765;DHT22;16667;-33.884;151.182;2022-08-18T03:22:21;19.30;99.90
29765;DHT22;16667;-33.884;151.182;2022-08-18T03:24:52;19.40;99.90
29765;DHT22;16667;-33.884;151.182;2022-08-18T03:27:25;19.70;99.90
29765;DHT22;16667;-33.884;151.182;2022-08-18T03:29:59;20.00;99.90
29765;DHT22;16667;-33.884;151.182;2022-08-18T03:32:31;20.10;99.90
29765;DHT22;16667;-33.884;151.182;2022-08-18T03:35:05;19.80;99.90
29765;DHT22;16667;-33.884;151.182;2022-08-18T03:37:36;19.70;99.90
29765;DHT22;16667;-33.884;151.182;2022-08-18T03:40:14;19.80;99.90
29765;DHT22;16667;-33.884;151.182;2022-08-18T03:42:47;19.90;99.90
29765;DHT22;16667;-33.884;151.182;2022-08-18T03:45:18;20.10;99.90
29765;DHT22;16667;-33.884;151.182;2022-08-18T03:47:49;20.20;99.90
29765;DHT22;16667;-33.884;151.182;2022-08-18T03:50:20;20.20;99.90
29765;DHT22;16667;-33.884;151.182;2022-08-18T03:52:52;20.30;99.90
29765;DHT22;16667;-33.884;151.182;2022-08-18T03:55:26;20.20;99.90
29765;DHT22;16667;-33.884;151.182;2022-08-18T03:58:03;20.00;99.90
29765;DHT22;16667;-33.884;151.182;2022-08-18T04:00:36;19.80;99.90
29765;DHT22;16667;-33.884;151.182;2022-08-18T04:03:07;19.60;99.90
29765;DHT22;16667;-33.884;151.182;2022-08-18T04:05:40;19.60;99.90
29765;DHT22;16667;-33.884;151.182;2022-08-18T04:08:11;19.80;99.90
29765;DHT22;16667;-33.884;151.182;2022-08-18T04:10:44;19.80;99.90
29765;DHT22;16667;-33.884;151.182;2022-08-18T04:13:17;19.70;99.90
29765;DHT22;16667;-33.884;151.182;2022-08-18T04:15:48;19.60;99.90
29765;DHT22;16667;-33.884;151.182;2022-08-18T04:18:18;19.60;99.90
29765;DHT22;16667;-33.884;151.182;2022-08-18T04:20:49;20.00;98.80
29765;DHT22;16667;-33.884;151.182;2022-08-18T04:23:20;20.50;98.30
29765;DHT22;16667;-33.884;151.182;2022-08-18T04:25:56;20.80;99.30
29765;DHT22;16667;-33.884;151.182;2022-08-18T04:28:30;21.10;97.00
29765;DHT22;16667;-33.884;151.182;2022-08-18T04:31:06;21.20;98.60
29765;DHT22;16667;-33.884;151.182;2022-08-18T04:33:38;21.40;97.00
29765;DHT22;16667;-33.884;151.182;2022-08-18T04:36:13;21.50;96.30
29765;DHT22;16667;-33.884;151.182;2022-08-18T04:38:44;21.80;97.80
29765;DHT22;16667;-33.884;151.182;2022-08-18T04:41:15;21.80;95.90
29765;DHT22;16667;-33.884;151.182;2022-08-18T04:43:48;21.60;94.90
29765;DHT22;16667;-33.884;151.182;2022-08-18T04:46:19;21.00;99.30
29765;DHT22;16667;-33.884;151.182;2022-08-18T04:48:50;20.70;97.80
29765;DHT22;16667;-33.884;151.182;2022-08-18T04:51:27;20.40;98.30
29765;DHT22;16667;-33.884;151.182;2022-08-18T04:53:58;20.40;98.90
29765;DHT22;16667;-33.884;151.182;2022-08-18T04:56:30;20.60;98.80
29765;DHT22;16667;-33.884;151.182;2022-08-18T04:59:05;20.90;99.20
29765;DHT22;16667;-33.884;151.182;2022-08-18T05:01:39;21.30;99.40
29765;DHT22;16667;-33.884;151.182;2022-08-18T05:04:15;21.70;99.40
29765;DHT22;16667;-33.884;151.182;2022-08-18T05:06:46;22.30;99.70
29765;DHT22;16667;-33.884;151.182;2022-08-18T05:09:18;22.60;96.30
29765;DHT22;16667;-33.884;151.182;2022-08-18T05:11:49;23.00;96.20
29765;DHT22;16667;-33.884;151.182;2022-08-18T05:14:22;23.30;96.50
29765;DHT22;16667;-33.884;151.182;2022-08-18T05:16:56;23.70;96.00
29765;DHT22;16667;-33.884;151.182;2022-08-18T05:19:27;23.30;93.00
29765;DHT22;16667;-33.884;151.182;2022-08-18T05:21:59;23.50;99.10
29765;DHT22;16667;-33.884;151.182;2022-08-18T05:24:30;23.70;97.50
29765;DHT22;16667;-33.884;151.182;2022-08-18T05:27:02;24.40;98.50
29765;DHT22;16667;-33.884;151.182;2022-08-18T05:29:36;25.10;93.20
29765;DHT22;16667;-33.884;151.182;2022-08-18T05:32:07;26.40;92.40
29765;DHT22;16667;-33.884;151.182;2022-08-18T05:34:41;27.50;95.30
29765;DHT22;16667;-33.884;151.182;2022-08-18T05:37:21;28.20;93.40
29765;DHT22;16667;-33.884;151.182;2022-08-18T05:39:59;28.20;90.60
29765;DHT22;16667;-33.884;151.182;2022-08-18T05:42:35;29.10;91.70
29765;DHT22;16667;-33.884;151.182;2022-08-18T05:45:12;28.90;82.90
29765;DHT22;16667;-33.884;151.182;2022-08-18T05:47:48;29.00;85.20
29765;DHT22;16667;-33.884;151.182;2022-08-18T05:50:20;29.00;80.70
29765;DHT22;16667;-33.884;151.182;2022-08-18T05:52:53;29.90;81.50
29765;DHT22;16667;-33.884;151.182;2022-08-18T05:55:28;30.30;78.90
29765;DHT22;16667;-33.884;151.182;2022-08-18T05:58:19;30.60;76.40
29765;DHT22;16667;-33.884;151.182;2022-08-18T06:00:59;30.00;74.90
29765;DHT22;16667;-33.884;151.182;2022-08-18T06:03:37;28.30;74.40
29765;DHT22;16667;-33.884;151.182;2022-08-18T06:06:17;26.70;78.10
29765;DHT22;16667;-33.884;151.182;2022-08-18T06:09:19;25.80;78.50
29765;DHT22;16667;-33.884;151.182;2022-08-18T06:11:59;24.60;79.80
29765;DHT22;16667;-33.884;151.182;2022-08-18T06:14:37;23.30;86.20
29765;DHT22;16667;-33.884;151.182;2022-08-18T06:20:06;21.60;93.20
29765;DHT22;16667;-33.884;151.182;2022-08-18T06:22:53;21.10;97.90
29765;DHT22;16667;-33.884;151.182;2022-08-18T06:25:34;20.70;99.90
29765;DHT22;16667;-33.884;151.182;2022-08-18T06:28:08;20.30;99.90
29765;DHT22;16667;-33.884;151.182;2022-08-18T06:30:48;20.00;99.90
29765;DHT22;16667;-33.884;151.182;2022-08-18T06:33:41;19.80;99.90
29765;DHT22;16667;-33.884;151.182;2022-08-18T06:36:24;19.60;99.90
29765;DHT22;16667;-33.884;151.182;2022-08-18T06:39:06;19.40;99.90
29765;DHT22;16667;-33.884;151.182;2022-08-18T06:41:44;19.30;99.90
29765;DHT22;16667;-33.884;151.182;2022-08-18T06:44:21;19.10;99.90
29765;DHT22;16667;-33.884;151.182;2022-08-18T06:46:58;19.00;99.90
29765;DHT22;16667;-33.884;151.182;2022-08-18T06:49:44;18.80;99.90
29765;DHT22;16667;-33.884;151.182;2022-08-18T06:52:25;18.60;99.90
29765;DHT22;16667;-33.884;151.182;2022-08-18T06:54:58;18.50;99.90
29765;DHT22;16667;-33.884;151.182;2022-08-18T06:57:31;18.30;99.90
29765;DHT22;16667;-33.884;151.182;2022-08-18T07:00:08;18.10;99.90
29765;DHT22;16667;-33.884;151.182;2022-08-18T07:02:47;18.00;99.90
29765;DHT22;16667;-33.884;151.182;2022-08-18T07:05:24;17.80;99.90
29765;DHT22;16667;-33.884;151.182;2022-08-18T07:08:11;17.70;99.90
29765;DHT22;16667;-33.884;151.182;2022-08-18T07:10:45;17.60;99.90
29765;DHT22;16667;-33.884;151.182;2022-08-18T07:13:24;17.60;99.90
29765;DHT22;16667;-33.884;151.182;2022-08-18T07:16:13;17.50;99.90
29765;DHT22;16667;-33.884;151.182;2022-08-18T07:18:44;17.40;99.90
29765;DHT22;16667;-33.884;151.182;2022-08-18T07:21:27;17.40;99.90
29765;DHT22;16667;-33.884;151.182;2022-08-18T07:24:04;17.30;99.90
29765;DHT22;16667;-33.884;151.182;2022-08-18T07:26:59;17.20;99.90
29765;DHT22;16667;-33.884;151.182;2022-08-18T07:29:31;17.20;99.90
29765;DHT22;16667;-33.884;151.182;2022-08-18T07:32:07;17.10;99.90
29765;DHT22;16667;-33.884;151.182;2022-08-18T07:34:42;17.10;99.90
29765;DHT22;16667;-33.884;151.182;2022-08-18T07:37:19;17.00;99.90
29765;DHT22;16667;-33.884;151.182;2022-08-18T07:39:54;17.00;99.90
29765;DHT22;16667;-33.884;151.182;2022-08-18T07:42:34;16.90;99.90
29765;DHT22;16667;-33.884;151.182;2022-08-18T07:45:16;16.90;99.90
29765;DHT22;16667;-33.884;151.182;2022-08-18T07:47:54;16.80;99.90
29765;DHT22;16667;-33.884;151.182;2022-08-18T07:50:36;16.80;99.90
29765;DHT22;16667;-33.884;151.182;2022-08-18T07:53:18;16.70;99.90
29765;DHT22;16667;-33.884;151.182;2022-08-18T07:55:58;16.70;99.90
29765;DHT22;16667;-33.884;151.182;2022-08-18T07:58:39;16.70;99.90
29765;DHT22;16667;-33.884;151.182;2022-08-18T08:01:20;16.70;99.90
29765;DHT22;16667;-33.884;151.182;2022-08-18T08:04:01;16.70;99.90
29765;DHT22;16667;-33.884;151.182;2022-08-18T08:06:51;16.70;99.90
29765;DHT22;16667;-33.884;151.182;2022-08-18T08:09:29;16.70;99.90
29765;DHT22;16667;-33.884;151.182;2022-08-18T08:12:11;16.50;99.90
29765;DHT22;16667;-33.884;151.182;2022-08-18T08:14:47;16.60;99.90
29765;DHT22;16667;-33.884;151.182;2022-08-18T08:17:24;16.60;99.90
29765;DHT22;16667;-33.884;151.182;2022-08-18T08:20:09;16.60;99.90
29765;DHT22;16667;-33.884;151.182;2022-08-18T08:23:00;16.50;99.90
29765;DHT22;16667;-33.884;151.182;2022-08-18T08:25:40;16.50;99.90
29765;DHT22;16667;-33.884;151.182;2022-08-18T08:28:20;16.60;99.90
29765;DHT22;16667;-33.884;151.182;2022-08-18T08:30:59;16.60;99.90
29765;DHT22;16667;-33.884;151.182;2022-08-18T08:33:35;16.50;99.90
29765;DHT22;16667;-33.884;151.182;2022-08-18T08:36:20;16.50;99.90
29765;DHT22;16667;-33.884;151.182;2022-08-18T08:39:04;16.50;99.90
29765;DHT22;16667;-33.884;151.182;2022-08-18T08:42:08;16.40;99.90
29765;DHT22;16667;-33.884;151.182;2022-08-18T08:44:45;16.40;99.90
29765;DHT22;16667;-33.884;151.182;2022-08-18T08:47:24;16.40;99.90
29765;DHT22;16667;-33.884;151.182;2022-08-18T08:49:58;16.40;99.90
29765;DHT22;16667;-33.884;151.182;2022-08-18T08:52:58;16.30;99.90
29765;DHT22;16667;-33.884;151.182;2022-08-18T08:55:35;16.30;99.90
29765;DHT22;16667;-33.884;151.182;2022-08-18T08:58:21;16.30;99.90
29765;DHT22;16667;-33.884;151.182;2022-08-18T09:00:54;16.30;99.90
29765;DHT22;16667;-33.884;151.182;2022-08-18T09:03:41;16.30;99.90
29765;DHT22;16667;-33.884;151.182;2022-08-18T09:06:23;16.30;99.90
29765;DHT22;16667;-33.884;151.182;2022-08-18T09:09:09;16.20;99.90
29765;DHT22;16667;-33.884;151.182;2022-08-18T09:11:58;16.20;99.90
29765;DHT22;16667;-33.884;151.182;2022-08-18T09:14:57;16.20;99.90
29765;DHT22;16667;-33.884;151.182;2022-08-18T09:17:54;16.10;99.90
29765;DHT22;16667;-33.884;151.182;2022-08-18T09:23:29;16.10;99.90
29765;DHT22;16667;-33.884;151.182;2022-08-18T09:26:22;16.00;99.90
29765;DHT22;16667;-33.884;151.182;2022-08-18T09:28:56;16.00;99.90
29765;DHT22;16667;-33.884;151.182;2022-08-18T09:31:31;16.00;99.90
29765;DHT22;16667;-33.884;151.182;2022-08-18T09:34:31;16.00;99.90
29765;DHT22;16667;-33.884;151.182;2022-08-18T09:37:17;16.00;99.90
29765;DHT22;16667;-33.884;151.182;2022-08-18T09:39:58;15.90;99.90
29765;DHT22;16667;-33.884;151.182;2022-08-18T09:42:53;15.90;99.90
29765;DHT22;16667;-33.884;151.182;2022-08-18T09:45:55;15.90;99.90
29765;DHT22;16667;-33.884;151.182;2022-08-18T09:48:30;15.90;99.90
29765;DHT22;16667;-33.884;151.182;2022-08-18T09:51:31;15.90;99.90
29765;DHT22;16667;-33.884;151.182;2022-08-18T09:54:20;15.90;99.90
29765;DHT22;16667;-33.884;151.182;2022-08-18T09:57:19;15.90;99.90
29765;DHT22;16667;-33.884;151.182;2022-08-18T10:00:19;15.90;99.90
29765;DHT22;16667;-33.884;151.182;2022-08-18T10:03:21;15.90;99.90
29765;DHT22;16667;-33.884;151.182;2022-08-18T10:06:06;15.90;99.90
29765;DHT22;16667;-33.884;151.182;2022-08-18T10:11:58;15.90;99.90
29765;DHT22;16667;-33.884;151.182;2022-08-18T10:15:02;15.90;99.90
29765;DHT22;16667;-33.884;151.182;2022-08-18T10:17:49;15.80;99.90
29765;DHT22;16667;-33.884;151.182;2022-08-18T10:20:37;15.80;99.90
29765;DHT22;16667;-33.884;151.182;2022-08-18T10:23:44;15.70;99.90
29765;DHT22;16667;-33.884;151.182;2022-08-18T10:29:55;15.60;99.90
29765;DHT22;16667;-33.884;151.182;2022-08-18T10:32:41;15.60;99.90
29765;DHT22;16667;-33.884;151.182;2022-08-18T10:38:36;15.50;99.90
29765;DHT22;16667;-33.884;151.182;2022-08-18T10:41:12;15.50;99.90
29765;DHT22;16667;-33.884;151.182;2022-08-18T10:43:50;15.40;99.90
29765;DHT22;16667;-33.884;151.182;2022-08-18T10:46:22;15.40;99.90
29765;DHT22;16667;-33.884;151.182;2022-08-18T10:49:16;15.40;99.90
29765;DHT22;16667;-33.884;151.182;2022-08-18T10:55:26;15.30;99.90
29765;DHT22;16667;-33.884;151.182;2022-08-18T10:58:44;15.30;99.90
29765;DHT22;16667;-33.884;151.182;2022-08-18T11:04:27;15.20;99.90
29765;DHT22;16667;-33.884;151.182;2022-08-18T11:07:07;15.20;99.90
29765;DHT22;16667;-33.884;151.182;2022-08-18T11:09:40;15.20;99.90
29765;DHT22;16667;-33.884;151.182;2022-08-18T11:12:14;15.20;99.90
29765;DHT22;16667;-33.884;151.182;2022-08-18T11:15:03;15.20;99.90
29765;DHT22;16667;-33.884;151.182;2022-08-18T11:17:43;15.20;99.90
29765;DHT22;16667;-33.884;151.182;2022-08-18T11:20:17;15.20;99.90
29765;DHT22;16667;-33.884;151.182;2022-08-18T11:22:53;15.20;99.90
29765;DHT22;16667;-33.884;151.182;2022-08-18T11:25:26;15.10;99.90
29765;DHT22;16667;-33.884;151.182;2022-08-18T11:27:59;15.10;99.90
29765;DHT22;16667;-33.884;151.182;2022-08-18T11:30:33;15.10;99.90
29765;DHT22;16667;-33.884;151.182;2022-08-18T11:33:05;15.10;99.90
29765;DHT22;16667;-33.884;151.182;2022-08-18T11:35:46;15.10;99.90
29765;DHT22;16667;-33.884;151.182;2022-08-18T11:38:20;15.10;99.90
29765;DHT22;16667;-33.884;151.182;2022-08-18T11:40:52;15.00;99.90
29765;DHT22;16667;-33.884;151.182;2022-08-18T11:43:29;15.00;99.90
29765;DHT22;16667;-33.884;151.182;2022-08-18T11:46:10;15.00;99.90
29765;DHT22;16667;-33.884;151.182;2022-08-18T11:48:46;15.00;99.90
29765;DHT22;16667;-33.884;151.182;2022-08-18T11:51:19;15.00;99.90
29765;DHT22;16667;-33.884;151.182;2022-08-18T11:53:56;15.00;99.90
29765;DHT22;16667;-33.884;151.182;2022-08-18T11:56:35;15.00;99.90
29765;DHT22;16667;-33.884;151.182;2022-08-18T11:59:32;15.00;99.90
29765;DHT22;16667;-33.884;151.182;2022-08-18T12:02:37;14.90;99.90
29765;DHT22;16667;-33.884;151.182;2022-08-18T12:05:15;14.90;99.90
29765;DHT22;16667;-33.884;151.182;2022-08-18T12:08:47;14.90;99.90
29765;DHT22;16667;-33.884;151.182;2022-08-18T12:11:57;14.90;99.90
29765;DHT22;16667;-33.884;151.182;2022-08-18T12:14:51;14.90;99.90
29765;DHT22;16667;-33.884;151.182;2022-08-18T12:17:45;14.80;99.90
29765;DHT22;16667;-33.884;151.182;2022-08-18T12:21:11;14.80;99.90
29765;DHT22;16667;-33.884;151.182;2022-08-18T12:24:16;14.80;99.90
29765;DHT22;16667;-33.884;151.182;2022-08-18T12:27:20;14.80;99.90
29765;DHT22;16667;-33.884;151.182;2022-08-18T12:30:14;14.80;99.90
29765;DHT22;16667;-33.884;151.182;2022-08-18T12:33:07;14.80;99.90
29765;DHT22;16667;-33.884;151.182;2022-08-18T12:35:59;14.80;99.90
29765;DHT22;16667;-33.884;151.182;2022-08-18T12:38:59;14.70;99.90
29765;DHT22;16667;-33.884;151.182;2022-08-18T12:41:45;14.80;99.90
29765;DHT22;16667;-33.884;151.182;2022-08-18T12:44:32;14.70;99.90
29765;DHT22;16667;-33.884;151.182;2022-08-18T12:47:52;14.70;99.90
29765;DHT22;16667;-33.884;151.182;2022-08-18T12:58:04;14.70;99.90
29765;DHT22;16667;-33.884;151.182;2022-08-18T13:00:33;14.70;99.90
29765;DHT22;16667;-33.884;151.182;2022-08-18T13:03:30;14.60;99.90
29765;DHT22;16667;-33.884;151.182;2022-08-18T13:06:04;14.60;99.90
29765;DHT22;16667;-33.884;151.182;2022-08-18T13:08:40;14.60;99.90
29765;DHT22;16667;-33.884;151.182;2022-08-18T13:11:18;14.60;99.90
29765;DHT22;16667;-33.884;151.182;2022-08-18T13:13:55;14.60;99.90
29765;DHT22;16667;-33.884;151.182;2022-08-18T13:16:34;14.60;99.90
29765;DHT22;16667;-33.884;151.182;2022-08-18T13:19:24;14.50;99.90
29765;DHT22;16667;-33.884;151.182;2022-08-18T13:24:16;14.60;99.90
29765;DHT22;16667;-33.884;151.182;2022-08-18T13:29:07;14.40;99.90
29765;DHT22;16667;-33.884;151.182;2022-08-18T13:31:47;14.40;99.90
29765;DHT22;16667;-33.884;151.182;2022-08-18T13:34:34;14.40;99.90
29765;DHT22;16667;-33.884;151.182;2022-08-18T13:37:38;14.40;99.90
29765;DHT22;16667;-33.884;151.182;2022-08-18T13:40:17;14.30;99.90
29765;DHT22;16667;-33.884;151.182;2022-08-18T13:42:56;14.30;99.90
29765;DHT22;16667;-33.884;151.182;2022-08-18T13:45:33;14.30;99.90
29765;DHT22;16667;-33.884;151.182;2022-08-18T13:48:08;14.30;99.90
29765;DHT22;16667;-33.884;151.182;2022-08-18T13:50:46;14.30;99.90
29765;DHT22;16667;-33.884;151.182;2022-08-18T13:53:21;14.30;99.90
29765;DHT22;16667;-33.884;151.182;2022-08-18T13:55:58;14.30;99.90
29765;DHT22;16667;-33.884;151.182;2022-08-18T13:58:35;14.30;99.90
29765;DHT22;16667;-33.884;151.182;2022-08-18T14:01:14;14.30;99.90
29765;DHT22;16667;-33.884;151.182;2022-08-18T14:03:47;14.30;99.90
29765;DHT22;16667;-33.884;151.182;2022-08-18T14:06:27;14.30;99.90
29765;DHT22;16667;-33.884;151.182;2022-08-18T14:09:03;14.30;99.90
29765;DHT22;16667;-33.884;151.182;2022-08-18T14:11:37;14.20;99.90
29765;DHT22;16667;-33.884;151.182;2022-08-18T14:14:08;14.20;99.90
29765;DHT22;16667;-33.884;151.182;2022-08-18T14:16:40;14.20;99.90
29765;DHT22;16667;-33.884;151.182;2022-08-18T14:19:16;14.20;99.90
29765;DHT22;16667;-33.884;151.182;2022-08-18T14:22:04;14.10;99.90
29765;DHT22;16667;-33.884;151.182;2022-08-18T14:24:51;14.20;99.90
29765;DHT22;16667;-33.884;151.182;2022-08-18T14:27:41;14.20;99.90
29765;DHT22;16667;-33.884;151.182;2022-08-18T14:30:13;14.20;99.90
29765;DHT22;16667;-33.884;151.182;2022-08-18T14:32:45;14.20;99.90
29765;DHT22;16667;-33.884;151.182;2022-08-18T14:35:25;14.20;99.90
29765;DHT22;16667;-33.884;151.182;2022-08-18T14:38:08;14.20;99.90
29765;DHT22;16667;-33.884;151.182;2022-08-18T14:40:45;14.10;99.90
29765;DHT22;16667;-33.884;151.182;2022-08-18T14:43:17;14.10;99.90
29765;DHT22;16667;-33.884;151.182;2022-08-18T14:45:49;14.10;99.90
29765;DHT22;16667;-33.884;151.182;2022-08-18T14:48:23;14.10;99.90
29765;DHT22;16667;-33.884;151.182;2022-08-18T14:50:56;14.10;99.90
29765;DHT22;16667;-33.884;151.182;2022-08-18T14:53:32;14.10;99.90
29765;DHT22;16667;-33.884;151.182;2022-08-18T14:56:07;14.10;99.90
29765;DHT22;16667;-33.884;151.182;2022-08-18T14:58:41;14.00;99.90
29765;DHT22;16667;-33.884;151.182;2022-08-18T15:01:11;14.10;99.90
29765;DHT22;16667;-33.884;151.182;2022-08-18T15:03:44;14.00;99.90
29765;DHT22;16667;-33.884;151.182;2022-08-18T15:06:23;14.00;99.90
29765;DHT22;16667;-33.884;151.182;2022-08-18T15:08:58;14.00;99.90
29765;DHT22;16667;-33.884;151.182;2022-08-18T15:11:32;14.00;99.90
29765;DHT22;16667;-33.884;151.182;2022-08-18T15:14:06;14.00;99.90
29765;DHT22;16667;-33.884;151.182;2022-08-18T15:16:44;14.00;99.90
29765;DHT22;16667;-33.884;151.182;2022-08-18T15:19:17;14.00;99.90
29765;DHT22;16667;-33.884;151.182;2022-08-18T15:21:53;14.10;99.90
29765;DHT22;16667;-33.884;151.182;2022-08-18T15:24:42;14.00;99.90
29765;DHT22;16667;-33.884;151.182;2022-08-18T15:27:33;14.00;99.90
29765;DHT22;16667;-33.884;151.182;2022-08-18T15:30:08;14.00;99.90
29765;DHT22;16667;-33.884;151.182;2022-08-18T15:32:47;14.00;99.90
29765;DHT22;16667;-33.884;151.182;2022-08-18T15:35:18;14.00;99.90
29765;DHT22;16667;-33.884;151.182;2022-08-18T15:37:54;14.00;99.90
29765;DHT22;16667;-33.884;151.182;2022-08-18T15:40:27;14.00;99.90
29765;DHT22;16667;-33.884;151.182;2022-08-18T15:43:00;13.90;99.90
29765;DHT22;16667;-33.884;151.182;2022-08-18T15:45:37;13.90;99.90
29765;DHT22;16667;-33.884;151.182;2022-08-18T15:48:11;13.90;99.90
29765;DHT22;16667;-33.884;151.182;2022-08-18T15:50:42;13.90;99.90
29765;DHT22;16667;-33.884;151.182;2022-08-18T15:53:18;13.80;99.90
29765;DHT22;16667;-33.884;151.182;2022-08-18T15:55:51;13.80;99.90
29765;DHT22;16667;-33.884;151.182;2022-08-18T15:58:22;13.80;99.90
29765;DHT22;16667;-33.884;151.182;2022-08-18T16:00:53;13.80;99.90
29765;DHT22;16667;-33.884;151.182;2022-08-18T16:03:23;13.80;99.90
29765;DHT22;16667;-33.884;151.182;2022-08-18T16:05:55;13.80;99.90
29765;DHT22;16667;-33.884;151.182;2022-08-18T16:08:26;13.80;99.90
29765;DHT22;16667;-33.884;151.182;2022-08-18T16:11:04;13.80;99.90
29765;DHT22;16667;-33.884;151.182;2022-08-18T16:13:35;13.80;99.90
29765;DHT22;16667;-33.884;151.182;2022-08-18T16:16:11;13.80;99.90
29765;DHT22;16667;-33.884;151.182;2022-08-18T16:18:44;13.80;99.90
29765;DHT22;16667;-33.884;151.182;2022-08-18T16:21:16;13.80;99.90
29765;DHT22;16667;-33.884;151.182;2022-08-18T16:23:51;13.80;99.90
29765;DHT22;16667;-33.884;151.182;2022-08-18T16:26:24;13.80;99.90
29765;DHT22;16667;-33.884;151.182;2022-08-18T16:28:55;13.80;99.90
29765;DHT22;16667;-33.884;151.182;2022-08-18T16:31:26;13.80;99.90